createdAt,value
2019-05-13T00:02:26.288Z,13.33
2019-05-13T00:04:55.735Z,14.60
2019-05-13T00:07:25.131Z,18.37
2019-05-13T00:09:54.559Z,11.83
2019-05-13T00:12:25.595Z,11.10
2019-05-13T00:14:55.030Z,7.07
2019-05-13T00:17:24.498Z,13.40
2019-05-13T00:19:53.978Z,12.27
2019-05-13T00:22:23.583Z,12.93
2019-05-13T00:24:54.247Z,12.87
2019-05-13T00:27:23.745Z,9.00
2019-05-13T00:29:53.527Z,9.90
2019-05-13T00:32:23.684Z,8.27
2019-05-13T00:34:54.929Z,11.93
2019-05-13T00:37:24.592Z,14.70
2019-05-13T00:39:54.376Z,12.73
2019-05-13T00:42:24.487Z,7.60
2019-05-13T00:44:54.168Z,13.40
2019-05-13T00:47:23.737Z,10.80
2019-05-13T00:49:54.133Z,11.47
2019-05-13T00:52:23.661Z,8.90
2019-05-13T00:54:53.585Z,14.73
2019-05-13T00:57:23.786Z,14.07
2019-05-13T00:59:54.124Z,10.87
2019-05-13T01:02:24.300Z,11.50
2019-05-13T01:04:53.877Z,11.00
2019-05-13T01:07:28.526Z,11.37
2019-05-13T01:09:54.490Z,8.83
2019-05-13T01:12:23.934Z,13.73
2019-05-13T01:14:53.548Z,12.50
2019-05-13T01:17:25.940Z,10.27
2019-05-13T01:19:55.452Z,11.07
2019-05-13T01:22:25.425Z,11.63
2019-05-13T01:24:54.866Z,9.33
2019-05-13T01:27:24.509Z,11.57
2019-05-13T01:29:53.949Z,8.97
2019-05-13T01:32:23.946Z,12.83
2019-05-13T01:34:53.981Z,14.03
2019-05-13T01:37:32.210Z,15.30
2019-05-13T01:39:54.579Z,11.77
2019-05-13T01:42:24.166Z,12.30
2019-05-13T01:44:54.043Z,10.30
2019-05-13T01:47:24.202Z,13.37
2019-05-13T01:49:54.244Z,12.00
2019-05-13T01:52:25.382Z,10.90
2019-05-13T01:54:54.802Z,11.00
2019-05-13T01:57:24.331Z,10.33
2019-05-13T01:59:54.061Z,7.10
2019-05-13T02:02:24.227Z,11.27
2019-05-13T02:04:53.781Z,14.63
2019-05-13T02:07:24.400Z,8.83
2019-05-13T02:09:57.039Z,9.87
2019-05-13T02:12:26.486Z,10.80
2019-05-13T02:14:55.995Z,12.07
2019-05-13T02:17:25.434Z,12.63
2019-05-13T02:19:54.948Z,13.40
2019-05-13T02:22:24.853Z,9.83
2019-05-13T02:24:54.359Z,7.57
2019-05-13T02:27:25.499Z,9.03
2019-05-13T02:29:55.113Z,10.40
2019-05-13T02:32:24.751Z,10.73
2019-05-13T02:34:54.191Z,11.17
2019-05-13T02:37:23.727Z,8.73
2019-05-13T02:39:53.728Z,7.47
2019-05-13T02:42:23.183Z,9.23
2019-05-13T02:44:53.136Z,10.67
2019-05-13T02:47:22.858Z,8.13
2019-05-13T02:49:53.493Z,10.23
2019-05-13T02:52:23.055Z,13.30
2019-05-13T02:54:52.974Z,7.67
2019-05-13T02:57:23.266Z,8.40
2019-05-13T02:59:53.005Z,7.57
2019-05-13T03:02:22.708Z,6.70
2019-05-13T03:04:52.596Z,11.50
2019-05-13T03:07:23.275Z,12.03
2019-05-13T03:09:53.068Z,12.07
2019-05-13T03:12:23.203Z,11.87
2019-05-13T03:14:53.495Z,9.57
2019-05-13T03:17:25.524Z,12.10
2019-05-13T03:19:54.995Z,10.47
2019-05-13T03:22:24.450Z,13.33
2019-05-13T03:24:54.163Z,11.10
2019-05-13T03:27:25.154Z,10.63
2019-05-13T03:29:54.962Z,10.13
2019-05-13T03:32:26.735Z,11.23
2019-05-13T03:34:57.045Z,16.77
2019-05-13T03:37:27.467Z,9.97
2019-05-13T03:39:58.202Z,9.30
2019-05-13T03:42:33.224Z,10.00
2019-05-13T03:45:03.459Z,13.20
2019-05-13T03:47:34.836Z,16.67
2019-05-13T03:50:05.741Z,12.43
2019-05-13T03:52:35.159Z,14.73
2019-05-13T03:55:07.073Z,7.43
2019-05-13T03:57:36.929Z,9.03
2019-05-13T04:00:08.206Z,8.60
2019-05-13T04:02:37.766Z,8.43
2019-05-13T04:05:07.402Z,11.23
2019-05-13T04:07:36.839Z,5.37
2019-05-13T04:10:07.825Z,7.37
2019-05-13T04:12:38.559Z,8.63
2019-05-13T04:15:12.400Z,7.73
2019-05-13T04:17:42.830Z,6.30
2019-05-13T04:20:12.780Z,8.97
2019-05-13T04:22:42.949Z,6.07
2019-05-13T04:25:12.926Z,9.00
2019-05-13T04:27:43.025Z,10.97
2019-05-13T04:30:13.602Z,6.80
2019-05-13T04:32:44.247Z,10.00
2019-05-13T04:35:14.225Z,9.20
2019-05-13T04:37:44.499Z,7.83
2019-05-13T04:40:15.903Z,10.33
2019-05-13T04:42:45.908Z,11.33
2019-05-13T04:45:15.489Z,10.70
2019-05-13T04:47:45.827Z,9.97
2019-05-13T04:50:15.508Z,11.90
2019-05-13T04:52:45.285Z,8.80
2019-05-13T04:55:14.946Z,10.73
2019-05-13T04:57:44.445Z,7.23
2019-05-13T05:00:14.614Z,7.47
2019-05-13T05:03:06.766Z,10.13
2019-05-13T05:05:52.891Z,8.90
2019-05-13T05:08:47.606Z,10.23
2019-05-13T05:11:53.789Z,9.50
2019-05-13T05:14:32.587Z,9.80
2019-05-13T05:17:17.019Z,7.63
2019-05-13T05:20:03.666Z,9.10
2019-05-13T05:23:01.942Z,9.60
2019-05-13T05:25:46.617Z,9.70
2019-05-13T05:28:21.639Z,7.50
2019-05-13T05:31:11.400Z,8.23
2019-05-13T05:34:06.208Z,7.17
2019-05-13T05:36:46.504Z,5.50
2019-05-13T05:39:24.776Z,6.10
2019-05-13T05:41:56.792Z,7.07
2019-05-13T05:44:32.079Z,7.93
2019-05-13T05:47:02.941Z,6.03
2019-05-13T05:49:32.789Z,6.73
2019-05-13T05:52:05.588Z,7.80
2019-05-13T05:54:38.152Z,10.10
2019-05-13T05:57:12.150Z,7.27
2019-05-13T05:59:42.570Z,6.37
2019-05-13T06:02:12.613Z,8.50
2019-05-13T06:04:43.338Z,6.27
2019-05-13T06:07:14.103Z,9.90
2019-05-13T06:09:43.792Z,9.07
2019-05-13T06:12:13.464Z,7.23
2019-05-13T06:14:43.545Z,7.37
2019-05-13T06:17:13.381Z,6.27
2019-05-13T06:19:43.627Z,7.47
2019-05-13T06:22:13.463Z,5.30
2019-05-13T06:24:43.145Z,7.00
2019-05-13T06:27:12.648Z,7.70
2019-05-13T06:29:42.593Z,5.93
2019-05-13T06:32:21.432Z,7.00
2019-05-13T06:34:43.601Z,8.70
2019-05-13T06:37:13.068Z,7.23
2019-05-13T06:39:47.528Z,6.80
2019-05-13T06:42:17.146Z,6.20
2019-05-13T06:44:46.591Z,7.47
2019-05-13T06:47:16.185Z,5.43
2019-05-13T06:49:51.873Z,6.17
2019-05-13T06:52:24.348Z,6.03
2019-05-13T06:54:53.825Z,5.47
2019-05-13T06:57:23.491Z,7.07
2019-05-13T06:59:53.015Z,5.77
2019-05-13T07:02:22.443Z,6.07
2019-05-13T07:04:52.020Z,5.53
2019-05-13T07:07:22.018Z,5.67
2019-05-13T07:09:51.929Z,5.60
2019-05-13T07:12:22.059Z,6.03
2019-05-13T07:14:51.959Z,5.63
2019-05-13T07:17:22.353Z,4.33
2019-05-13T07:19:53.183Z,5.80
2019-05-13T07:22:23.197Z,5.73
2019-05-13T07:24:52.772Z,7.23
2019-05-13T07:27:23.279Z,3.03
2019-05-13T07:29:55.559Z,5.63
2019-05-13T07:32:26.141Z,5.73
2019-05-13T07:34:57.158Z,8.10
2019-05-13T07:37:26.822Z,4.83
2019-05-13T07:39:56.771Z,3.23
2019-05-13T07:42:26.626Z,6.43
2019-05-13T07:44:56.192Z,4.10
2019-05-13T07:47:25.809Z,6.37
2019-05-13T07:49:55.205Z,3.37
2019-05-13T07:52:24.879Z,5.03
2019-05-13T07:54:54.393Z,9.10
2019-05-13T07:57:23.793Z,3.93
2019-05-13T07:59:53.294Z,4.30
2019-05-13T08:02:22.757Z,3.97
2019-05-13T08:04:53.162Z,4.73
2019-05-13T08:07:22.859Z,5.30
2019-05-13T08:09:55.712Z,4.67
2019-05-13T08:12:23.379Z,5.43
2019-05-13T08:14:53.042Z,3.53
2019-05-13T08:17:22.788Z,5.43
2019-05-13T08:19:52.283Z,4.67
2019-05-13T08:22:22.293Z,7.13
2019-05-13T08:24:54.129Z,2.97
2019-05-13T08:27:30.227Z,4.80
2019-05-13T08:29:55.848Z,4.27
2019-05-13T08:32:25.347Z,5.97
2019-05-13T08:35:01.688Z,5.53
2019-05-13T08:37:26.056Z,3.07
2019-05-13T08:39:55.459Z,4.80
2019-05-13T08:42:25.076Z,5.47
2019-05-13T08:44:54.693Z,5.60
2019-05-13T08:47:24.184Z,8.23
2019-05-13T08:49:53.579Z,4.57
2019-05-13T08:52:23.030Z,3.90
2019-05-13T08:54:52.688Z,4.77
2019-05-13T08:57:22.342Z,4.67
2019-05-13T08:59:53.380Z,3.73
2019-05-13T09:02:22.941Z,3.90
2019-05-13T09:04:52.378Z,3.87
2019-05-13T09:07:24.377Z,8.80
2019-05-13T09:09:53.559Z,3.60
2019-05-13T09:12:32.165Z,3.20
2019-05-13T09:14:54.210Z,2.10
2019-05-13T09:17:23.681Z,4.47
2019-05-13T09:19:53.195Z,3.90
2019-05-13T09:22:22.597Z,4.83
2019-05-13T09:24:52.991Z,3.77
2019-05-13T09:27:22.754Z,3.47
2019-05-13T09:29:52.201Z,5.10
2019-05-13T09:32:21.770Z,3.50
2019-05-13T09:34:52.503Z,3.40
2019-05-13T09:37:22.688Z,3.63
2019-05-13T09:39:52.305Z,7.40
2019-05-13T09:42:21.894Z,3.13
2019-05-13T09:44:52.501Z,3.97
2019-05-13T09:47:22.158Z,3.57
2019-05-13T09:49:54.380Z,3.57
2019-05-13T09:52:22.899Z,3.77
2019-05-13T09:54:52.575Z,5.87
2019-05-13T09:57:23.561Z,3.87
2019-05-13T09:59:54.604Z,4.30
2019-05-13T10:02:24.003Z,7.10
2019-05-13T10:04:54.241Z,5.03
2019-05-13T10:07:24.755Z,2.90
2019-05-13T10:09:55.845Z,3.40
2019-05-13T10:12:25.634Z,4.67
2019-05-13T10:14:55.094Z,4.47
2019-05-13T10:17:24.630Z,3.83
2019-05-13T10:19:54.170Z,3.50
2019-05-13T10:22:23.675Z,3.97
2019-05-13T10:24:53.077Z,3.53
2019-05-13T10:27:23.855Z,5.53
2019-05-13T10:29:53.515Z,5.17
2019-05-13T10:32:23.086Z,3.83
2019-05-13T10:34:54.648Z,3.43
2019-05-13T10:37:24.178Z,5.47
2019-05-13T10:39:53.648Z,5.57
2019-05-13T10:42:23.083Z,5.30
2019-05-13T10:44:53.906Z,4.20
2019-05-13T10:47:23.528Z,4.30
2019-05-13T10:49:52.934Z,4.47
2019-05-13T10:52:22.894Z,2.33
2019-05-13T10:54:52.939Z,3.37
2019-05-13T10:57:22.496Z,2.27
2019-05-13T10:59:53.934Z,3.13
2019-05-13T11:02:23.374Z,2.40
2019-05-13T11:04:52.869Z,3.50
2019-05-13T11:07:22.667Z,4.00
2019-05-13T11:09:52.852Z,3.77
2019-05-13T11:12:28.084Z,3.77
2019-05-13T11:14:55.352Z,2.17
2019-05-13T11:17:31.136Z,3.03
2019-05-13T11:19:56.603Z,6.03
2019-05-13T11:22:26.034Z,5.07
2019-05-13T11:24:55.630Z,3.90
2019-05-13T11:27:25.354Z,6.97
2019-05-13T11:29:54.810Z,3.60
2019-05-13T11:32:24.276Z,3.93
2019-05-13T11:34:53.751Z,2.37
2019-05-13T11:37:23.468Z,5.77
2019-05-13T11:39:53.034Z,3.53
2019-05-13T11:42:22.979Z,3.00
2019-05-13T11:44:53.147Z,3.87
2019-05-13T11:47:22.673Z,2.67
2019-05-13T11:49:52.480Z,4.37
2019-05-13T11:52:22.711Z,3.40
2019-05-13T11:54:53.749Z,2.33
2019-05-13T11:57:23.509Z,5.13
2019-05-13T11:59:53.558Z,3.37
2019-05-13T12:02:24.794Z,3.63
2019-05-13T12:04:54.368Z,4.53
2019-05-13T12:07:25.275Z,2.00
2019-05-13T12:09:54.785Z,5.07
2019-05-13T12:12:30.466Z,2.73
2019-05-13T12:15:22.398Z,3.17
2019-05-13T12:17:26.628Z,3.03
2019-05-13T12:19:56.096Z,3.30
2019-05-13T12:22:25.491Z,3.70
2019-05-13T12:24:54.921Z,3.37
2019-05-13T12:27:24.576Z,3.60
2019-05-13T12:29:54.002Z,4.83
2019-05-13T12:32:23.408Z,3.73
2019-05-13T12:34:53.209Z,2.23
2019-05-13T12:37:22.799Z,3.30
2019-05-13T12:39:53.394Z,3.67
2019-05-13T12:42:23.006Z,2.80
2019-05-13T12:45:08.997Z,2.87
2019-05-13T12:47:23.705Z,3.10
2019-05-13T12:49:53.118Z,2.17
2019-05-13T12:52:23.123Z,2.10
2019-05-13T12:54:53.181Z,2.10
2019-05-13T12:57:24.529Z,1.87
2019-05-13T12:59:53.960Z,3.00
2019-05-13T13:02:23.500Z,3.80
2019-05-13T13:05:10.587Z,5.43
2019-05-13T13:07:25.584Z,4.17
2019-05-13T13:09:55.103Z,2.30
2019-05-13T13:12:34.393Z,2.23
2019-05-13T13:14:57.519Z,1.80
2019-05-13T13:17:26.921Z,1.70
2019-05-13T13:20:04.711Z,1.70
2019-05-13T13:22:27.546Z,2.97
2019-05-13T13:24:57.741Z,2.67
2019-05-13T13:27:58.867Z,3.13
2019-05-13T13:30:04.409Z,2.60
2019-05-13T13:32:33.119Z,3.47
2019-05-13T13:35:03.749Z,2.97
2019-05-13T13:37:34.993Z,2.43
2019-05-13T13:40:06.175Z,2.03
2019-05-13T13:42:35.907Z,1.77
2019-05-13T13:45:06.472Z,4.03
2019-05-13T13:47:35.903Z,3.83
2019-05-13T13:50:07.259Z,6.30
2019-05-13T13:52:36.795Z,2.17
2019-05-13T13:55:08.811Z,2.67
2019-05-13T13:57:38.017Z,4.33
2019-05-13T14:00:26.394Z,3.53
2019-05-13T14:02:42.372Z,3.60
2019-05-13T14:05:12.806Z,2.90
2019-05-13T14:07:42.696Z,4.17
2019-05-13T14:10:12.804Z,1.67
2019-05-13T14:12:42.322Z,4.17
2019-05-13T14:15:12.519Z,4.13
2019-05-13T14:17:43.933Z,2.33
2019-05-13T14:20:14.218Z,7.23
2019-05-13T14:22:43.643Z,2.30
2019-05-13T14:25:13.540Z,3.00
2019-05-13T14:27:42.952Z,3.40
2019-05-13T14:30:14.020Z,2.53
2019-05-13T14:32:43.461Z,1.97
2019-05-13T14:35:13.144Z,3.17
2019-05-13T14:37:42.645Z,5.27
2019-05-13T14:40:13.328Z,2.07
2019-05-13T14:42:42.878Z,2.63
2019-05-13T14:45:14.253Z,4.90
2019-05-13T14:47:43.957Z,3.67
2019-05-13T14:50:15.074Z,2.30
2019-05-13T14:52:44.687Z,2.93
2019-05-13T14:55:14.613Z,2.23
2019-05-13T14:57:44.222Z,3.40
2019-05-13T15:00:14.226Z,4.93
2019-05-13T15:02:43.875Z,4.33
2019-05-13T15:05:14.691Z,2.70
2019-05-13T15:07:44.198Z,2.77
2019-05-13T15:10:13.969Z,2.97
2019-05-13T15:12:43.786Z,1.87
2019-05-13T15:15:15.254Z,2.70
2019-05-13T15:17:44.765Z,3.20
2019-05-13T15:20:14.797Z,2.10
2019-05-13T15:22:45.847Z,2.10
2019-05-13T15:25:15.389Z,3.27
2019-05-13T15:27:45.166Z,4.27
2019-05-13T15:30:18.009Z,2.47
2019-05-13T15:32:46.024Z,3.73
2019-05-13T15:35:15.453Z,3.00
2019-05-13T15:37:44.966Z,3.50
2019-05-13T15:40:14.635Z,2.63
2019-05-13T15:42:44.371Z,5.03
2019-05-13T15:45:15.482Z,4.00
2019-05-13T15:47:44.966Z,4.03
2019-05-13T15:50:14.586Z,3.97
2019-05-13T15:52:43.967Z,2.60
2019-05-13T15:55:13.478Z,4.07
2019-05-13T15:57:43.158Z,2.57
2019-05-13T16:00:12.951Z,3.73
2019-05-13T16:02:42.424Z,4.47
2019-05-13T16:05:12.352Z,4.27
2019-05-13T16:07:42.138Z,3.40
2019-05-13T16:10:11.720Z,3.50
2019-05-13T16:12:41.154Z,6.43
2019-05-13T16:15:15.506Z,4.33
2019-05-13T16:17:44.819Z,4.03
2019-05-13T16:20:13.759Z,3.20
2019-05-13T16:22:43.287Z,3.60
2019-05-13T16:25:14.724Z,2.27
2019-05-13T16:27:44.194Z,2.83
2019-05-13T16:30:13.990Z,3.50
2019-05-13T16:32:43.401Z,1.50
2019-05-13T16:35:13.755Z,2.73
2019-05-13T16:37:43.210Z,2.83
2019-05-13T16:40:13.089Z,5.83
2019-05-13T16:42:42.490Z,2.57
2019-05-13T16:45:12.807Z,4.10
2019-05-13T16:47:56.640Z,4.17
2019-05-13T16:50:15.473Z,2.83
2019-05-13T16:52:44.870Z,3.47
2019-05-13T16:55:15.558Z,6.17
2019-05-13T16:57:45.020Z,2.93
2019-05-13T17:00:15.160Z,2.83
2019-05-13T17:02:44.679Z,3.43
2019-05-13T17:05:14.742Z,2.90
2019-05-13T17:07:44.361Z,3.10
2019-05-13T17:10:14.278Z,3.20
2019-05-13T17:12:43.670Z,2.67
2019-05-13T17:15:13.822Z,3.33
2019-05-13T17:17:43.386Z,2.80
2019-05-13T17:20:13.439Z,2.70
2019-05-13T17:22:42.882Z,3.13
2019-05-13T17:25:12.920Z,2.50
2019-05-13T17:27:42.344Z,3.90
2019-05-13T17:30:12.243Z,2.80
2019-05-13T17:32:41.665Z,5.70
2019-05-13T17:35:11.816Z,3.60
2019-05-13T17:37:42.900Z,3.03
2019-05-13T17:40:12.699Z,5.60
2019-05-13T17:42:43.883Z,1.70
2019-05-13T17:45:13.670Z,3.40
2019-05-13T17:47:43.103Z,3.20
2019-05-13T17:50:12.882Z,3.83
2019-05-13T17:52:42.487Z,4.47
2019-05-13T17:55:12.169Z,8.23
2019-05-13T17:57:41.676Z,6.17
2019-05-13T18:00:12.276Z,3.23
2019-05-13T18:02:42.134Z,4.07
2019-05-13T18:05:12.274Z,4.93
2019-05-13T18:07:42.128Z,2.67
2019-05-13T18:10:14.483Z,4.07
2019-05-13T18:12:43.199Z,6.63
2019-05-13T18:15:12.906Z,4.90
2019-05-13T18:17:42.811Z,3.90
2019-05-13T18:20:12.351Z,3.73
2019-05-13T18:22:42.175Z,6.13
2019-05-13T18:25:12.264Z,6.37
2019-05-13T18:27:42.427Z,8.63
2019-05-13T18:30:12.432Z,6.73
2019-05-13T18:32:41.961Z,3.30
2019-05-13T18:35:12.250Z,4.00
2019-05-13T18:37:42.039Z,2.93
2019-05-13T18:40:11.962Z,4.40
2019-05-13T18:42:42.202Z,5.30
2019-05-13T18:45:11.978Z,2.73
2019-05-13T18:47:41.520Z,3.40
2019-05-13T18:50:11.718Z,3.33
2019-05-13T18:52:42.070Z,2.83
2019-05-13T18:55:12.402Z,2.87
2019-05-13T18:57:44.853Z,3.17
2019-05-13T19:00:14.431Z,4.00
2019-05-13T19:02:43.854Z,4.80
2019-05-13T19:05:13.377Z,3.77
2019-05-13T19:07:42.892Z,3.10
2019-05-13T19:10:12.583Z,3.17
2019-05-13T19:12:42.379Z,2.83
2019-05-13T19:15:11.841Z,5.10
2019-05-13T19:17:41.676Z,4.33
2019-05-13T19:20:11.834Z,3.67
2019-05-13T19:22:41.487Z,5.50
2019-05-13T19:25:11.911Z,4.17
2019-05-13T19:27:41.608Z,4.60
2019-05-13T19:30:12.242Z,2.70
2019-05-13T19:32:42.298Z,7.53
2019-05-13T19:35:13.220Z,5.63
2019-05-13T19:37:42.773Z,6.83
2019-05-13T19:40:13.018Z,3.90
2019-05-13T19:42:42.677Z,3.13
2019-05-13T19:45:12.330Z,5.50
2019-05-13T19:47:42.037Z,5.13
2019-05-13T19:50:11.766Z,4.47
2019-05-13T19:52:41.597Z,3.83
2019-05-13T19:55:12.031Z,4.23
2019-05-13T19:57:42.480Z,3.87
2019-05-13T20:00:14.244Z,5.67
2019-05-13T20:02:43.787Z,4.50
2019-05-13T20:05:13.353Z,5.40
2019-05-13T20:07:43.158Z,3.10
2019-05-13T20:10:12.871Z,4.93
2019-05-13T20:12:42.458Z,3.37
2019-05-13T20:15:12.145Z,4.13
2019-05-13T20:17:43.214Z,6.27
2019-05-13T20:20:13.022Z,3.40
2019-05-13T20:22:42.524Z,5.00
2019-05-13T20:25:13.090Z,4.33
2019-05-13T20:27:43.039Z,5.03
2019-05-13T20:30:12.501Z,5.53
2019-05-13T20:32:42.189Z,6.97
2019-05-13T20:35:11.851Z,5.63
2019-05-13T20:37:42.825Z,4.47
2019-05-13T20:40:12.478Z,4.50
2019-05-13T20:42:43.499Z,6.27
2019-05-13T20:45:13.140Z,4.80
2019-05-13T20:47:42.651Z,5.73
2019-05-13T20:50:12.638Z,4.63
2019-05-13T20:52:42.218Z,7.17
2019-05-13T20:55:12.130Z,4.50
2019-05-13T20:57:41.837Z,5.00
2019-05-13T21:00:12.799Z,5.20
2019-05-13T21:02:42.498Z,4.93
2019-05-13T21:05:13.001Z,4.87
2019-05-13T21:07:42.436Z,5.07
2019-05-13T21:10:12.305Z,7.07
2019-05-13T21:12:43.645Z,5.27
2019-05-13T21:15:13.334Z,5.77
2019-05-13T21:17:43.031Z,7.03
2019-05-13T21:20:19.535Z,6.40
2019-05-13T21:22:43.820Z,4.07
2019-05-13T21:25:13.745Z,4.90
2019-05-13T21:27:43.360Z,4.83
2019-05-13T21:30:13.482Z,5.60
2019-05-13T21:32:43.847Z,5.33
2019-05-13T21:35:13.451Z,4.17
2019-05-13T21:37:42.889Z,7.17
2019-05-13T21:40:13.938Z,6.07
2019-05-13T21:42:43.666Z,5.97
2019-05-13T21:45:13.203Z,5.73
2019-05-13T21:47:42.644Z,6.73
2019-05-13T21:50:12.686Z,4.47
2019-05-13T21:52:42.766Z,6.63
2019-05-13T21:55:12.404Z,6.23
2019-05-13T21:57:41.867Z,5.27
2019-05-13T22:00:16.278Z,8.37
2019-05-13T22:02:45.860Z,5.23
2019-05-13T22:05:15.494Z,6.20
2019-05-13T22:07:44.991Z,6.43
2019-05-13T22:10:15.095Z,4.67
2019-05-13T22:12:44.596Z,8.77
2019-05-13T22:15:14.438Z,4.47
2019-05-13T22:17:44.011Z,5.37
2019-05-13T22:20:14.016Z,5.17
2019-05-13T22:22:43.464Z,6.47
2019-05-13T22:25:13.136Z,8.20
2019-05-13T22:27:42.771Z,4.67
2019-05-13T22:30:12.504Z,7.40
2019-05-13T22:32:42.113Z,6.00
2019-05-13T22:35:12.119Z,6.60
2019-05-13T22:37:43.075Z,8.73
2019-05-13T22:40:14.225Z,7.30
2019-05-13T22:42:43.671Z,7.47
2019-05-13T22:45:13.128Z,5.07
2019-05-13T22:47:42.563Z,8.83
2019-05-13T22:50:12.629Z,4.60
2019-05-13T22:52:42.152Z,7.33
2019-05-13T22:55:11.888Z,8.93
2019-05-13T22:57:41.989Z,6.77
2019-05-13T23:00:12.134Z,7.60
2019-05-13T23:02:42.326Z,7.73
2019-05-13T23:05:11.933Z,6.47
2019-05-13T23:07:41.513Z,5.93
2019-05-13T23:10:11.931Z,6.83
2019-05-13T23:12:42.084Z,9.40
2019-05-13T23:15:12.264Z,9.87
2019-05-13T23:17:41.760Z,5.23
2019-05-13T23:20:11.693Z,7.43
2019-05-13T23:22:41.618Z,7.53
2019-05-13T23:25:12.146Z,5.63
2019-05-13T23:27:41.884Z,7.20
2019-05-13T23:30:11.805Z,7.30
2019-05-13T23:32:41.228Z,9.13
2019-05-13T23:35:11.297Z,6.63
2019-05-13T23:37:41.800Z,8.10
2019-05-13T23:40:11.971Z,7.97
2019-05-13T23:42:41.477Z,7.63
2019-05-13T23:45:11.587Z,8.40
2019-05-13T23:47:41.767Z,9.13
2019-05-13T23:50:12.622Z,7.20
2019-05-13T23:52:42.199Z,9.63
2019-05-13T23:55:11.652Z,8.93
2019-05-13T23:57:42.123Z,9.47
